sensor_id;sensor_type;location;lat;lon;timestamp;temperature;humidity
15705;DHT22;7952;48.396;12.806;2023-04-07T00:00:28;6.30;39.90
15705;DHT22;7952;48.396;12.806;2023-04-07T00:02:54;6.20;39.90
15705;DHT22;7952;48.396;12.806;2023-04-07T00:05:20;6.20;40.00
15705;DHT22;7952;48.396;12.806;2023-04-07T00:07:45;6.10;39.90
15705;DHT22;7952;48.396;12.806;2023-04-07T00:10:11;6.10;40.00
15705;DHT22;7952;48.396;12.806;2023-04-07T00:12:36;6.00;39.90
15705;DHT22;7952;48.396;12.806;2023-04-07T00:15:02;6.00;40.00
15705;DHT22;7952;48.396;12.806;2023-04-07T00:17:27;5.90;40.00
15705;DHT22;7952;48.396;12.806;2023-04-07T00:19:53;5.80;40.00
15705;DHT22;7952;48.396;12.806;2023-04-07T00:22:19;5.70;40.00
15705;DHT22;7952;48.396;12.806;2023-04-07T00:24:44;5.70;40.10
15705;DHT22;7952;48.396;12.806;2023-04-07T00:27:10;5.60;40.10
15705;DHT22;7952;48.396;12.806;2023-04-07T00:29:35;5.50;40.10
15705;DHT22;7952;48.396;12.806;2023-04-07T00:32:01;5.40;40.10
15705;DHT22;7952;48.396;12.806;2023-04-07T00:34:26;5.30;40.10
15705;DHT22;7952;48.396;12.806;2023-04-07T00:36:52;5.30;40.20
15705;DHT22;7952;48.396;12.806;2023-04-07T00:39:18;5.20;40.20
15705;DHT22;7952;48.396;12.806;2023-04-07T00:41:44;5.20;40.30
15705;DHT22;7952;48.396;12.806;2023-04-07T00:44:10;5.10;40.40
15705;DHT22;7952;48.396;12.806;2023-04-07T00:46:36;5.10;40.40
15705;DHT22;7952;48.396;12.806;2023-04-07T00:49:02;5.00;40.50
15705;DHT22;7952;48.396;12.806;2023-04-07T00:51:27;5.00;40.50
15705;DHT22;7952;48.396;12.806;2023-04-07T00:53:54;5.00;40.50
15705;DHT22;7952;48.396;12.806;2023-04-07T00:56:19;4.90;40.50
15705;DHT22;7952;48.396;12.806;2023-04-07T00:58:45;4.90;40.60
15705;DHT22;7952;48.396;12.806;2023-04-07T01:01:15;4.90;40.60
15705;DHT22;7952;48.396;12.806;2023-04-07T01:03:48;4.90;40.60
15705;DHT22;7952;48.396;12.806;2023-04-07T01:06:19;4.90;40.70
15705;DHT22;7952;48.396;12.806;2023-04-07T01:09:04;4.80;40.60
15705;DHT22;7952;48.396;12.806;2023-04-07T01:11:38;4.80;40.60
15705;DHT22;7952;48.396;12.806;2023-04-07T01:14:09;4.80;40.60
15705;DHT22;7952;48.396;12.806;2023-04-07T01:17:01;4.80;40.70
15705;DHT22;7952;48.396;12.806;2023-04-07T01:19:41;4.80;40.70
15705;DHT22;7952;48.396;12.806;2023-04-07T01:22:18;4.80;40.80
15705;DHT22;7952;48.396;12.806;2023-04-07T01:27:20;4.80;40.80
15705;DHT22;7952;48.396;12.806;2023-04-07T01:29:49;4.80;40.70
15705;DHT22;7952;48.396;12.806;2023-04-07T01:32:17;4.80;40.70
15705;DHT22;7952;48.396;12.806;2023-04-07T01:34:49;4.80;40.70
15705;DHT22;7952;48.396;12.806;2023-04-07T01:37:16;4.90;40.80
15705;DHT22;7952;48.396;12.806;2023-04-07T01:39:42;4.90;40.80
15705;DHT22;7952;48.396;12.806;2023-04-07T01:42:08;4.90;40.90
15705;DHT22;7952;48.396;12.806;2023-04-07T01:44:34;4.90;40.80
15705;DHT22;7952;48.396;12.806;2023-04-07T01:47:01;4.90;40.80
15705;DHT22;7952;48.396;12.806;2023-04-07T01:49:28;4.90;40.70
15705;DHT22;7952;48.396;12.806;2023-04-07T01:51:54;4.90;40.70
15705;DHT22;7952;48.396;12.806;2023-04-07T01:54:20;5.00;40.80
15705;DHT22;7952;48.396;12.806;2023-04-07T01:56:46;4.90;40.70
15705;DHT22;7952;48.396;12.806;2023-04-07T01:59:12;4.90;40.70
15705;DHT22;7952;48.396;12.806;2023-04-07T02:01:38;4.90;40.70
15705;DHT22;7952;48.396;12.806;2023-04-07T02:04:12;4.90;40.80
15705;DHT22;7952;48.396;12.806;2023-04-07T02:06:53;4.90;40.80
15705;DHT22;7952;48.396;12.806;2023-04-07T02:09:21;4.90;40.80
15705;DHT22;7952;48.396;12.806;2023-04-07T02:11:49;4.90;40.80
15705;DHT22;7952;48.396;12.806;2023-04-07T02:14:18;4.90;40.80
15705;DHT22;7952;48.396;12.806;2023-04-07T02:16:47;5.00;40.80
15705;DHT22;7952;48.396;12.806;2023-04-07T02:19:13;5.00;40.90
15705;DHT22;7952;48.396;12.806;2023-04-07T02:21:39;5.00;40.80
15705;DHT22;7952;48.396;12.806;2023-04-07T02:24:06;5.00;40.80
15705;DHT22;7952;48.396;12.806;2023-04-07T02:26:33;5.00;40.80
15705;DHT22;7952;48.396;12.806;2023-04-07T02:29:00;5.10;40.90
15705;DHT22;7952;48.396;12.806;2023-04-07T02:31:26;5.10;40.90
15705;DHT22;7952;48.396;12.806;2023-04-07T02:33:51;5.10;40.90
15705;DHT22;7952;48.396;12.806;2023-04-07T02:36:17;5.10;40.80
15705;DHT22;7952;48.396;12.806;2023-04-07T02:38:42;5.10;40.80
15705;DHT22;7952;48.396;12.806;2023-04-07T02:41:08;5.10;40.80
15705;DHT22;7952;48.396;12.806;2023-04-07T02:43:33;5.10;40.80
15705;DHT22;7952;48.396;12.806;2023-04-07T02:45:59;5.10;40.80
15705;DHT22;7952;48.396;12.806;2023-04-07T02:48:25;5.10;40.80
15705;DHT22;7952;48.396;12.806;2023-04-07T02:50:50;5.10;40.80
15705;DHT22;7952;48.396;12.806;2023-04-07T02:53:16;5.00;40.80
15705;DHT22;7952;48.396;12.806;2023-04-07T02:55:41;5.00;40.80
15705;DHT22;7952;48.396;12.806;2023-04-07T02:58:07;5.00;40.80
15705;DHT22;7952;48.396;12.806;2023-04-07T03:00:33;4.90;40.80
15705;DHT22;7952;48.396;12.806;2023-04-07T03:02:59;4.90;40.90
15705;DHT22;7952;48.396;12.806;2023-04-07T03:05:25;4.90;40.90
15705;DHT22;7952;48.396;12.806;2023-04-07T03:07:51;4.80;40.90
15705;DHT22;7952;48.396;12.806;2023-04-07T03:10:17;4.80;41.00
15705;DHT22;7952;48.396;12.806;2023-04-07T03:12:43;4.80;41.00
15705;DHT22;7952;48.396;12.806;2023-04-07T03:15:08;4.80;41.00
15705;DHT22;7952;48.396;12.806;2023-04-07T03:17:34;4.80;41.00
15705;DHT22;7952;48.396;12.806;2023-04-07T03:20:00;4.70;41.00
15705;DHT22;7952;48.396;12.806;2023-04-07T03:22:26;4.70;41.00
15705;DHT22;7952;48.396;12.806;2023-04-07T03:24:52;4.70;41.00
15705;DHT22;7952;48.396;12.806;2023-04-07T03:27:17;4.70;41.00
15705;DHT22;7952;48.396;12.806;2023-04-07T03:29:44;4.70;41.00
15705;DHT22;7952;48.396;12.806;2023-04-07T03:32:11;4.70;41.20
15705;DHT22;7952;48.396;12.806;2023-04-07T03:34:37;4.70;41.90
15705;DHT22;7952;48.396;12.806;2023-04-07T03:37:02;4.80;41.30
15705;DHT22;7952;48.396;12.806;2023-04-07T03:39:28;4.90;41.30
15705;DHT22;7952;48.396;12.806;2023-04-07T03:41:53;4.90;41.30
15705;DHT22;7952;48.396;12.806;2023-04-07T03:44:20;5.00;41.30
15705;DHT22;7952;48.396;12.806;2023-04-07T03:46:46;5.00;41.20
15705;DHT22;7952;48.396;12.806;2023-04-07T03:49:13;5.10;41.20
15705;DHT22;7952;48.396;12.806;2023-04-07T03:51:38;5.10;41.10
15705;DHT22;7952;48.396;12.806;2023-04-07T03:54:04;5.20;41.10
15705;DHT22;7952;48.396;12.806;2023-04-07T03:56:30;5.20;41.10
15705;DHT22;7952;48.396;12.806;2023-04-07T03:58:55;5.20;41.00
15705;DHT22;7952;48.396;12.806;2023-04-07T04:01:21;5.30;41.10
15705;DHT22;7952;48.396;12.806;2023-04-07T04:03:48;5.30;41.00
15705;DHT22;7952;48.396;12.806;2023-04-07T04:06:14;5.30;41.00
15705;DHT22;7952;48.396;12.806;2023-04-07T04:08:39;5.30;41.00
15705;DHT22;7952;48.396;12.806;2023-04-07T04:11:05;5.20;41.00
15705;DHT22;7952;48.396;12.806;2023-04-07T04:13:31;5.20;41.00
15705;DHT22;7952;48.396;12.806;2023-04-07T04:15:57;5.20;41.00
15705;DHT22;7952;48.396;12.806;2023-04-07T04:18:22;5.20;41.00
15705;DHT22;7952;48.396;12.806;2023-04-07T04:20:48;5.10;41.00
15705;DHT22;7952;48.396;12.806;2023-04-07T04:23:14;5.10;41.60
15705;DHT22;7952;48.396;12.806;2023-04-07T04:25:40;5.00;41.00
15705;DHT22;7952;48.396;12.806;2023-04-07T04:28:05;5.00;41.10
15705;DHT22;7952;48.396;12.806;2023-04-07T04:30:31;4.90;41.10
15705;DHT22;7952;48.396;12.806;2023-04-07T04:32:57;4.90;41.20
15705;DHT22;7952;48.396;12.806;2023-04-07T04:35:22;4.90;41.20
15705;DHT22;7952;48.396;12.806;2023-04-07T04:37:48;4.80;41.20
15705;DHT22;7952;48.396;12.806;2023-04-07T04:40:14;4.80;41.30
15705;DHT22;7952;48.396;12.806;2023-04-07T04:42:39;4.80;41.30
15705;DHT22;7952;48.396;12.806;2023-04-07T04:45:06;4.80;41.30
15705;DHT22;7952;48.396;12.806;2023-04-07T04:47:31;4.80;41.40
15705;DHT22;7952;48.396;12.806;2023-04-07T04:49:57;4.80;41.40
15705;DHT22;7952;48.396;12.806;2023-04-07T04:52:23;4.80;41.50
15705;DHT22;7952;48.396;12.806;2023-04-07T04:54:48;4.80;41.40
15705;DHT22;7952;48.396;12.806;2023-04-07T04:57:14;4.80;41.50
15705;DHT22;7952;48.396;12.806;2023-04-07T04:59:40;4.80;41.50
15705;DHT22;7952;48.396;12.806;2023-04-07T05:02:06;4.80;41.50
15705;DHT22;7952;48.396;12.806;2023-04-07T05:04:32;4.80;41.60
15705;DHT22;7952;48.396;12.806;2023-04-07T05:06:57;4.90;41.70
15705;DHT22;7952;48.396;12.806;2023-04-07T05:09:23;5.10;42.00
15705;DHT22;7952;48.396;12.806;2023-04-07T05:11:49;5.40;42.40
15705;DHT22;7952;48.396;12.806;2023-04-07T05:14:14;5.70;42.60
15705;DHT22;7952;48.396;12.806;2023-04-07T05:16:40;6.10;42.70
15705;DHT22;7952;48.396;12.806;2023-04-07T05:19:05;6.40;42.70
15705;DHT22;7952;48.396;12.806;2023-04-07T05:21:31;6.80;42.50
15705;DHT22;7952;48.396;12.806;2023-04-07T05:23:56;7.20;42.60
15705;DHT22;7952;48.396;12.806;2023-04-07T05:26:22;7.50;42.60
15705;DHT22;7952;48.396;12.806;2023-04-07T05:28:47;7.90;42.50
15705;DHT22;7952;48.396;12.806;2023-04-07T05:31:13;8.30;42.30
15705;DHT22;7952;48.396;12.806;2023-04-07T05:33:38;8.70;42.10
15705;DHT22;7952;48.396;12.806;2023-04-07T05:36:04;9.20;42.00
15705;DHT22;7952;48.396;12.806;2023-04-07T05:38:30;9.70;42.00
15705;DHT22;7952;48.396;12.806;2023-04-07T05:40:56;10.10;41.00
15705;DHT22;7952;48.396;12.806;2023-04-07T05:43:21;10.50;40.80
15705;DHT22;7952;48.396;12.806;2023-04-07T05:45:47;11.00;40.90
15705;DHT22;7952;48.396;12.806;2023-04-07T05:51:52;11.80;40.80
15705;DHT22;7952;48.396;12.806;2023-04-07T05:54:40;12.50;40.80
15705;DHT22;7952;48.396;12.806;2023-04-07T05:57:15;13.00;40.80
15705;DHT22;7952;48.396;12.806;2023-04-07T07:14:10;21.70;39.70
15705;DHT22;7952;48.396;12.806;2023-04-07T07:19:40;22.10;39.70
15705;DHT22;7952;48.396;12.806;2023-04-07T07:22:15;22.30;39.70
15705;DHT22;7952;48.396;12.806;2023-04-07T07:52:00;24.30;39.30
15705;DHT22;7952;48.396;12.806;2023-04-07T08:04:36;24.90;39.10
15705;DHT22;7952;48.396;12.806;2023-04-07T08:07:03;25.00;38.90
15705;DHT22;7952;48.396;12.806;2023-04-07T08:09:31;25.10;38.80
15705;DHT22;7952;48.396;12.806;2023-04-07T08:35:46;25.50;37.90
15705;DHT22;7952;48.396;12.806;2023-04-07T08:48:19;25.10;37.30
15705;DHT22;7952;48.396;12.806;2023-04-07T08:51:57;24.90;37.30
15705;DHT22;7952;48.396;12.806;2023-04-07T15:35:09;16.20;39.00
15705;DHT22;7952;48.396;12.806;2023-04-07T15:47:48;16.30;39.10
15705;DHT22;7952;48.396;12.806;2023-04-07T16:01:03;16.20;39.10
15705;DHT22;7952;48.396;12.806;2023-04-07T16:54:07;15.40;39.30
15705;DHT22;7952;48.396;12.806;2023-04-07T16:57:04;15.40;39.40
15705;DHT22;7952;48.396;12.806;2023-04-07T17:23:47;14.60;39.70
15705;DHT22;7952;48.396;12.806;2023-04-07T17:43:42;13.80;39.90
15705;DHT22;7952;48.396;12.806;2023-04-07T17:59:57;13.20;40.00
15705;DHT22;7952;48.396;12.806;2023-04-07T18:02:23;13.10;40.10
15705;DHT22;7952;48.396;12.806;2023-04-07T18:04:49;13.00;40.10
15705;DHT22;7952;48.396;12.806;2023-04-07T18:07:15;12.90;40.10
15705;DHT22;7952;48.396;12.806;2023-04-07T18:09:42;12.80;40.10
15705;DHT22;7952;48.396;12.806;2023-04-07T18:12:09;12.70;40.10
15705;DHT22;7952;48.396;12.806;2023-04-07T18:14:35;12.70;40.10
15705;DHT22;7952;48.396;12.806;2023-04-07T18:17:08;12.60;40.10
15705;DHT22;7952;48.396;12.806;2023-04-07T18:19:33;12.50;40.20
15705;DHT22;7952;48.396;12.806;2023-04-07T18:21:59;12.40;40.10
15705;DHT22;7952;48.396;12.806;2023-04-07T18:24:25;12.30;40.10
15705;DHT22;7952;48.396;12.806;2023-04-07T18:26:51;12.30;40.20
15705;DHT22;7952;48.396;12.806;2023-04-07T18:29:16;12.20;40.20
15705;DHT22;7952;48.396;12.806;2023-04-07T18:31:42;12.10;40.20
15705;DHT22;7952;48.396;12.806;2023-04-07T18:34:08;12.00;40.20
15705;DHT22;7952;48.396;12.806;2023-04-07T18:39:31;11.90;40.20
15705;DHT22;7952;48.396;12.806;2023-04-07T18:41:59;11.80;40.20
15705;DHT22;7952;48.396;12.806;2023-04-07T18:44:25;11.80;40.30
15705;DHT22;7952;48.396;12.806;2023-04-07T18:46:52;11.70;40.30
15705;DHT22;7952;48.396;12.806;2023-04-07T18:49:24;11.70;40.30
15705;DHT22;7952;48.396;12.806;2023-04-07T19:02:18;11.40;40.30
15705;DHT22;7952;48.396;12.806;2023-04-07T19:04:46;11.30;40.30
15705;DHT22;7952;48.396;12.806;2023-04-07T19:07:12;11.30;40.40
15705;DHT22;7952;48.396;12.806;2023-04-07T19:09:41;11.20;40.40
15705;DHT22;7952;48.396;12.806;2023-04-07T19:12:18;11.20;40.50
15705;DHT22;7952;48.396;12.806;2023-04-07T19:14:44;11.20;40.50
15705;DHT22;7952;48.396;12.806;2023-04-07T19:17:19;11.10;40.40
15705;DHT22;7952;48.396;12.806;2023-04-07T19:19:48;11.10;40.40
15705;DHT22;7952;48.396;12.806;2023-04-07T19:22:14;11.10;40.40
15705;DHT22;7952;48.396;12.806;2023-04-07T19:24:39;11.00;41.00
15705;DHT22;7952;48.396;12.806;2023-04-07T19:27:05;11.00;40.40
15705;DHT22;7952;48.396;12.806;2023-04-07T19:29:31;11.00;40.40
15705;DHT22;7952;48.396;12.806;2023-04-07T19:31:57;10.90;40.40
15705;DHT22;7952;48.396;12.806;2023-04-07T19:34:23;10.90;40.40
15705;DHT22;7952;48.396;12.806;2023-04-07T19:36:48;10.90;40.40
15705;DHT22;7952;48.396;12.806;2023-04-07T19:39:14;10.90;40.50
15705;DHT22;7952;48.396;12.806;2023-04-07T19:41:40;10.90;40.50
15705;DHT22;7952;48.396;12.806;2023-04-07T19:44:06;10.80;40.40
15705;DHT22;7952;48.396;12.806;2023-04-07T19:46:31;10.80;40.50
15705;DHT22;7952;48.396;12.806;2023-04-07T19:49:00;10.80;40.50
15705;DHT22;7952;48.396;12.806;2023-04-07T19:51:26;10.80;40.50
15705;DHT22;7952;48.396;12.806;2023-04-07T19:53:51;10.80;40.50
15705;DHT22;7952;48.396;12.806;2023-04-07T19:56:17;10.80;40.50
15705;DHT22;7952;48.396;12.806;2023-04-07T19:58:43;10.80;40.50
15705;DHT22;7952;48.396;12.806;2023-04-07T20:01:16;10.80;40.50
15705;DHT22;7952;48.396;12.806;2023-04-07T20:03:42;10.80;40.50
15705;DHT22;7952;48.396;12.806;2023-04-07T20:06:07;10.80;40.50
15705;DHT22;7952;48.396;12.806;2023-04-07T20:08:33;10.80;40.50
15705;DHT22;7952;48.396;12.806;2023-04-07T20:10:58;10.80;40.50
15705;DHT22;7952;48.396;12.806;2023-04-07T20:13:24;10.80;40.50
15705;DHT22;7952;48.396;12.806;2023-04-07T20:15:50;10.70;40.40
15705;DHT22;7952;48.396;12.806;2023-04-07T20:18:15;10.70;40.40
15705;DHT22;7952;48.396;12.806;2023-04-07T20:20:43;10.70;40.40
15705;DHT22;7952;48.396;12.806;2023-04-07T20:23:09;10.70;40.50
15705;DHT22;7952;48.396;12.806;2023-04-07T20:25:35;10.70;40.50
15705;DHT22;7952;48.396;12.806;2023-04-07T20:28:01;10.60;40.50
15705;DHT22;7952;48.396;12.806;2023-04-07T20:30:26;10.60;40.50
15705;DHT22;7952;48.396;12.806;2023-04-07T20:32:52;10.60;40.50
15705;DHT22;7952;48.396;12.806;2023-04-07T20:35:18;10.50;40.50
15705;DHT22;7952;48.396;12.806;2023-04-07T20:37:44;10.50;40.50
15705;DHT22;7952;48.396;12.806;2023-04-07T20:40:10;10.50;40.60
15705;DHT22;7952;48.396;12.806;2023-04-07T20:42:36;10.40;40.60
15705;DHT22;7952;48.396;12.806;2023-04-07T20:45:02;10.40;40.60
15705;DHT22;7952;48.396;12.806;2023-04-07T20:47:30;10.40;40.70
15705;DHT22;7952;48.396;12.806;2023-04-07T20:49:55;10.30;40.70
15705;DHT22;7952;48.396;12.806;2023-04-07T20:52:21;10.30;40.70
15705;DHT22;7952;48.396;12.806;2023-04-07T20:54:49;10.20;40.60
15705;DHT22;7952;48.396;12.806;2023-04-07T20:57:14;10.20;40.70
15705;DHT22;7952;48.396;12.806;2023-04-07T20:59:40;10.20;40.70
15705;DHT22;7952;48.396;12.806;2023-04-07T21:02:06;10.10;40.60
15705;DHT22;7952;48.396;12.806;2023-04-07T21:04:31;10.10;40.70
15705;DHT22;7952;48.396;12.806;2023-04-07T21:06:58;10.00;40.60
15705;DHT22;7952;48.396;12.806;2023-04-07T21:09:23;10.00;40.70
15705;DHT22;7952;48.396;12.806;2023-04-07T21:11:49;10.00;40.80
15705;DHT22;7952;48.396;12.806;2023-04-07T21:14:14;9.90;41.70
15705;DHT22;7952;48.396;12.806;2023-04-07T21:16:40;9.90;41.80
15705;DHT22;7952;48.396;12.806;2023-04-07T21:19:06;9.80;41.70
15705;DHT22;7952;48.396;12.806;2023-04-07T21:21:31;9.80;41.80
15705;DHT22;7952;48.396;12.806;2023-04-07T21:23:57;9.70;41.70
15705;DHT22;7952;48.396;12.806;2023-04-07T21:26:22;9.70;41.80
15705;DHT22;7952;48.396;12.806;2023-04-07T21:28:50;9.60;41.70
15705;DHT22;7952;48.396;12.806;2023-04-07T21:31:20;9.60;41.80
15705;DHT22;7952;48.396;12.806;2023-04-07T21:33:46;9.60;41.90
15705;DHT22;7952;48.396;12.806;2023-04-07T21:36:12;9.60;41.90
15705;DHT22;7952;48.396;12.806;2023-04-07T21:38:37;9.50;42.00
15705;DHT22;7952;48.396;12.806;2023-04-07T21:41:03;9.40;42.00
15705;DHT22;7952;48.396;12.806;2023-04-07T21:43:29;9.40;41.90
15705;DHT22;7952;48.396;12.806;2023-04-07T21:45:54;9.40;42.00
15705;DHT22;7952;48.396;12.806;2023-04-07T21:48:20;9.40;42.00
15705;DHT22;7952;48.396;12.806;2023-04-07T21:50:52;9.40;42.00
15705;DHT22;7952;48.396;12.806;2023-04-07T21:53:18;9.30;42.00
15705;DHT22;7952;48.396;12.806;2023-04-07T21:55:43;9.30;42.00
15705;DHT22;7952;48.396;12.806;2023-04-07T21:58:09;9.30;42.10
15705;DHT22;7952;48.396;12.806;2023-04-07T22:00:35;9.30;42.10
15705;DHT22;7952;48.396;12.806;2023-04-07T22:03:03;9.30;42.20
15705;DHT22;7952;48.396;12.806;2023-04-07T22:05:30;9.20;42.10
15705;DHT22;7952;48.396;12.806;2023-04-07T22:07:55;9.20;42.10
15705;DHT22;7952;48.396;12.806;2023-04-07T22:10:21;9.20;42.10
15705;DHT22;7952;48.396;12.806;2023-04-07T22:12:46;9.20;42.10
15705;DHT22;7952;48.396;12.806;2023-04-07T22:15:12;9.20;42.20
15705;DHT22;7952;48.396;12.806;2023-04-07T22:17:38;9.20;42.20
15705;DHT22;7952;48.396;12.806;2023-04-07T22:20:05;9.20;42.20
15705;DHT22;7952;48.396;12.806;2023-04-07T22:22:31;9.20;42.80
15705;DHT22;7952;48.396;12.806;2023-04-07T22:24:56;9.20;42.20
15705;DHT22;7952;48.396;12.806;2023-04-07T22:27:22;9.10;42.20
15705;DHT22;7952;48.396;12.806;2023-04-07T22:29:47;9.10;42.20
15705;DHT22;7952;48.396;12.806;2023-04-07T22:32:13;9.10;42.20
15705;DHT22;7952;48.396;12.806;2023-04-07T22:34:38;9.10;42.20
15705;DHT22;7952;48.396;12.806;2023-04-07T22:37:04;9.10;42.30
15705;DHT22;7952;48.396;12.806;2023-04-07T22:39:30;9.10;42.30
15705;DHT22;7952;48.396;12.806;2023-04-07T22:41:56;9.10;42.30
15705;DHT22;7952;48.396;12.806;2023-04-07T22:44:21;9.10;42.30
15705;DHT22;7952;48.396;12.806;2023-04-07T22:46:47;9.10;42.30
15705;DHT22;7952;48.396;12.806;2023-04-07T22:49:12;9.10;42.30
15705;DHT22;7952;48.396;12.806;2023-04-07T22:51:38;9.10;42.90
15705;DHT22;7952;48.396;12.806;2023-04-07T22:54:03;9.10;42.30
15705;DHT22;7952;48.396;12.806;2023-04-07T22:56:29;9.10;42.70
15705;DHT22;7952;48.396;12.806;2023-04-07T22:58:55;9.10;42.30
15705;DHT22;7952;48.396;12.806;2023-04-07T23:01:29;9.20;42.30
15705;DHT22;7952;48.396;12.806;2023-04-07T23:03:55;9.20;42.40
15705;DHT22;7952;48.396;12.806;2023-04-07T23:06:20;9.20;42.60
15705;DHT22;7952;48.396;12.806;2023-04-07T23:08:46;9.20;42.30
15705;DHT22;7952;48.396;12.806;2023-04-07T23:11:11;9.20;42.40
15705;DHT22;7952;48.396;12.806;2023-04-07T23:13:37;9.20;42.40
15705;DHT22;7952;48.396;12.806;2023-04-07T23:16:03;9.20;42.40
15705;DHT22;7952;48.396;12.806;2023-04-07T23:18:29;9.30;42.40
15705;DHT22;7952;48.396;12.806;2023-04-07T23:20:56;9.30;42.50
15705;DHT22;7952;48.396;12.806;2023-04-07T23:23:21;9.30;42.40
15705;DHT22;7952;48.396;12.806;2023-04-07T23:25:47;9.30;42.40
15705;DHT22;7952;48.396;12.806;2023-04-07T23:28:12;9.30;42.40
15705;DHT22;7952;48.396;12.806;2023-04-07T23:30:38;9.30;42.40
15705;DHT22;7952;48.396;12.806;2023-04-07T23:33:03;9.30;43.00
15705;DHT22;7952;48.396;12.806;2023-04-07T23:35:29;9.30;42.40
15705;DHT22;7952;48.396;12.806;2023-04-07T23:37:54;9.30;42.40
15705;DHT22;7952;48.396;12.806;2023-04-07T23:40:20;9.40;42.60
15705;DHT22;7952;48.396;12.806;2023-04-07T23:42:45;9.30;42.40
15705;DHT22;7952;48.396;12.806;2023-04-07T23:45:11;9.40;42.50
15705;DHT22;7952;48.396;12.806;2023-04-07T23:47:36;9.40;42.50
15705;DHT22;7952;48.396;12.806;2023-04-07T23:50:02;9.40;42.50
15705;DHT22;7952;48.396;12.806;2023-04-07T23:52:28;9.40;42.60
15705;DHT22;7952;48.396;12.806;2023-04-07T23:54:53;9.40;42.60
15705;DHT22;7952;48.396;12.806;2023-04-07T23:57:19;9.40;42.60
15705;DHT22;7952;48.396;12.806;2023-04-07T23:59:44;9.40;42.60
